• Join FlightAware (Why Join?)
  • Login
  • US Flag 
11:14PM EDT


 

Airport Tracker/Info


-or-


 

Live Flight TrackerFlight Track Log ✈ SWA16 ✈ 07-May-2013 ✈ KDEN - KMHT

Flight Track Log - Related Links

Times and Time Zones

All times are in EDT time to prevent confusion due to time zone crossing. See the SWA16 flight status page for this flight to view local times or setup timezone preferences in your user account.

Time Position Orientation Groundspeed Altitude Reporting Facility
EDT Latitude Longitude Course Direction KTS MPH feet Rate Location/Type
07:34PM 39.8833 -104.5833 72° East 180 207 7,200  Level Denver TRACON
07:35PM 39.8833 -104.4833 90° East 248 285 8,800 1,380 Climbing Denver TRACON
07:36PM 39.8833 -104.3833 90° East 295 339 10,100 840 Climbing Denver TRACON
07:37PM 39.8747 -104.3456 107° East 291 335 10,000 1,560 Descending Denver Center
07:38PM 39.8633 -104.2311 97° East 300 345 12,400 2,520 Climbing Denver Center
07:39PM 39.8203 -104.1297 119° Southeast 319 367 15,300 2,340 Climbing Denver Center
07:40PM 39.8777 -103.7558 72° East  Level FlightAware Approximate
07:40PM 39.7731 -104.0083 117° Southeast 355 409 17,300  Level Denver Center
07:41PM 39.7431 -103.8728 106° East 386 444 19,500 2,040 Climbing Denver Center
07:42PM 39.7358 -103.7272 94° East 401 461 22,000 2,160 Climbing Denver Center
07:43PM 39.7628 -103.5569 78° East 416 479 24,400 2,040 Climbing Denver Center
07:44PM 39.8000 -103.3789 75° East 434 499 26,300 2,160 Climbing Denver Center
07:45PM 39.8208 -103.2194 80° East 441 507 28,900 2,220 Climbing Denver Center
07:46PM 39.8364 -103.0881 81° East 439 505 30,900 1,740 Climbing Denver Center
07:47PM 39.8700 -102.9103 76° East 432 497 32,500 1,320 Climbing Denver Center
07:48PM 39.9050 -102.7567 73° East 438 504 33,700 900 Climbing Denver Center
07:50PM 39.9333 -102.5944 77° East 449 517 34,600 540 Climbing Denver Center
07:51PM 39.9744 -102.3892 75° East 461 531 35,000 180 Climbing Denver Center
07:52PM 40.0044 -102.2339 76° East 461 531 35,000  Level Denver Center
07:53PM 40.0406 -102.0508 75° East 468 539 35,000  Level Denver Center
07:54PM 40.0656 -101.9222 76° East 462 532 35,000  Level Denver Center
07:55PM 40.1047 -101.7097 76° East 472 543 35,000  Level Denver Center
07:56PM 40.1344 -101.5503 76° East 473 544 35,000  Level Denver Center
07:57PM 40.1686 -101.3661 76° East 469 540 35,000  Level Denver Center
07:58PM 40.1975 -101.2083 76° East 468 539 35,000  Level Denver Center
07:59PM 40.2317 -101.0269 76° East 463 533 35,000  Level Denver Center
08:00PM 40.2594 -100.8711 77° East 462 532 35,000  Level Denver Center
08:01PM 40.2917 -100.6908 77° East 459 528 35,000  Level Denver Center
08:02PM 40.3192 -100.5375 77° East 457 526 35,000 420 Level Denver Center
08:03PM 40.3511 -100.3583 77° East 455 524 35,900 780 Climbing Denver Center
08:04PM 40.3772 -100.2042 77° East 455 524 36,700 480 Climbing Denver Center
08:05PM 40.4089 -100.0197 77° East 465 535 37,000 120 Climbing Denver Center
08:06PM 40.4367 -99.8550 77° East 469 540 37,000  Level Denver Center
08:07PM 40.4664 -99.6892 77° East 468 539 37,000  Level Denver Center
08:08PM 40.4942 -99.5214 78° East 471 542 37,000  Level Denver Center
08:09PM 40.5222 -99.3550 77° East 469 540 37,000  Level Denver Center
08:10PM 40.5492 -99.1889 78° East 468 539 37,000  Level Denver Center
08:11PM 40.5725 -99.0550 77° East 471 542 37,000  Level Minneapolis Center
08:12PM 40.6003 -98.8881 78° East 471 542 37,000  Level Minneapolis Center
08:13PM 40.6269 -98.7206 78° East 471 542 37,000  Level Minneapolis Center
08:14PM 40.6536 -98.5525 78° East 472 543 37,000  Level Minneapolis Center
08:15PM 40.6853 -98.3514 78° East 471 542 37,000  Level Minneapolis Center
08:16PM 40.7125 -98.1844 78° East 470 541 37,000  Level Minneapolis Center
08:17PM 40.7383 -98.0175 78° East 468 539 37,000  Level Minneapolis Center
08:18PM 40.7636 -97.8489 79° East 469 540 37,000  Level Minneapolis Center
08:19PM 40.7894 -97.6819 78° East 467 537 37,000  Level Minneapolis Center
08:20PM 40.8156 -97.5133 78° East 469 540 37,000  Level Minneapolis Center
08:21PM 40.8414 -97.3411 79° East 468 539 37,000  Level Minneapolis Center
08:22PM 40.8672 -97.1408 80° East 464 534 37,000  Level Minneapolis Center
08:23PM 40.8919 -96.9750 79° East 462 532 37,000  Level Minneapolis Center
08:24PM 40.9192 -96.8086 78° East 463 533 37,000  Level Minneapolis Center
08:25PM 40.9439 -96.6417 79° East 465 535 37,000  Level Minneapolis Center
08:26PM 40.9672 -96.4733 80° East 466 536 37,000  Level Minneapolis Center
08:27PM 40.9908 -96.3058 79° East 467 537 37,000  Level Minneapolis Center
08:28PM 41.0194 -96.1039 79° East 469 540 37,000  Level Minneapolis Center
08:30PM 41.0425 -95.9342 80° East 472 543 37,000  Level Minneapolis Center
08:31PM 41.0656 -95.7661 80° East 471 542 37,000  Level Minneapolis Center
08:32PM 41.0878 -95.5978 80° East 469 540 37,000  Level Minneapolis Center
08:33PM 41.1156 -95.3950 80° East 470 541 37,000  Level Minneapolis Center
08:34PM 41.1378 -95.2269 80° East 466 536 37,000  Level Minneapolis Center
08:35PM 41.1589 -95.0608 80° East 462 532 37,000  Level Minneapolis Center
08:36PM 41.1792 -94.8961 81° East 455 524 37,000  Level Minneapolis Center
08:37PM 41.2000 -94.7322 80° East 453 521 37,000  Level Minneapolis Center
08:38PM 41.2197 -94.5703 81° East 448 516 37,000  Level Minneapolis Center
08:39PM 41.2439 -94.3756 81° East 446 513 37,000  Level Minneapolis Center
08:40PM 41.2631 -94.2128 81° East 446 513 37,000  Level Minneapolis Center
08:41PM 41.2797 -94.0697 81° East 446 513 37,000  Level Minneapolis Center
08:42PM 41.3036 -93.8733 81° East 450 518 37,000  Level Minneapolis Center
08:43PM 41.3236 -93.7083 81° East 453 521 37,000  Level Minneapolis Center
08:44PM 41.3422 -93.5453 81° East 451 519 37,000  Level Minneapolis Center
08:45PM 41.3575 -93.4144 81° East 451 519 37,000  Level Minneapolis Center
08:46PM 41.3800 -93.2203 81° East 447 514 37,000  Level Minneapolis Center
08:47PM 41.4044 -92.9953 82° East 443 510 37,000  Level Minneapolis Center
08:48PM 41.4222 -92.8328 82° East 443 510 37,000  Level Minneapolis Center
08:49PM 41.4411 -92.6708 81° East 444 511 37,000  Level Minneapolis Center
08:50PM 41.4572 -92.5081 82° East 444 511 37,000  Level Minneapolis Center
08:51PM 41.4747 -92.3450 82° East 446 513 37,000  Level Minneapolis Center
08:52PM 41.4947 -92.1497 82° East 445 512 37,000  Level Minneapolis Center
08:54PM 41.5122 -91.9850 82° East 449 517 37,000  Level Minneapolis Center
08:55PM 41.5289 -91.8189 82° East 452 520 37,000  Level Minneapolis Center
08:56PM 41.5469 -91.6214 83° East 465 535 37,000  Level Chicago Center
08:57PM 41.5633 -91.4614 82° East 451 519 37,000  Level Chicago Center
08:58PM 41.5781 -91.2992 83° East 449 517 37,000  Level Chicago Center
08:59PM 41.5975 -91.1039 82° East 448 516 37,000  Level Chicago Center
09:00PM 41.6117 -90.9417 83° East 447 514 37,000  Level Chicago Center
09:01PM 41.6269 -90.7781 83° East 448 516 37,000  Level Chicago Center
09:02PM 41.6414 -90.6153 83° East 448 516 37,000  Level Chicago Center
09:03PM 41.6592 -90.4200 83° East 445 512 37,000  Level Chicago Center
09:04PM 41.6722 -90.2586 84° East 444 511 37,000  Level Chicago Center
09:05PM 41.6844 -90.0975 84° East 442 509 37,000  Level Chicago Center
09:06PM 41.6983 -89.9364 83° East 443 510 37,000  Level Chicago Center
09:07PM 41.7117 -89.7683 84° East 440 506 37,000  Level Chicago Center
09:08PM 41.7247 -89.6064 84° East 440 506 37,000  Level Chicago Center
09:09PM 41.7397 -89.4117 84° East 441 507 37,000  Level Chicago Center
09:10PM 41.7531 -89.2503 84° East 441 507 37,000  Level Chicago Center
09:11PM 41.7647 -89.0881 84° East 440 506 37,000  Level Chicago Center
09:12PM 41.7764 -88.9275 84° East 436 502 37,000  Level Chicago Center
09:13PM 41.7894 -88.7650 84° East 439 505 37,000  Level Chicago Center
09:14PM 41.8003 -88.6039 85° East 436 502 37,000  Level Chicago Center
09:15PM 41.8142 -88.4108 84° East 436 502 37,000  Level Chicago Center
09:16PM 41.8247 -88.2511 85° East 430 495 37,000  Level Chicago Center
09:17PM 41.8353 -88.0900 85° East 431 496 37,000  Level Chicago Center
09:18PM 41.8461 -87.9300 85° East 430 495 37,000  Level Chicago Center
09:19PM 41.8567 -87.7689 85° East 433 498 37,000  Level Chicago Center
09:20PM 41.8669 -87.6086 85° East 430 495 37,000  Level Chicago Center
09:22PM 41.8764 -87.4486 85° East 432 497 37,000  Level Chicago Center
09:23PM 41.8875 -87.2561 86° East 431 496 37,000 600 Level Chicago Center
09:24PM 41.8967 -87.0969 86° East 429 494 38,300 960 Climbing Chicago Center
09:25PM 41.9053 -86.9400 86° East 424 488 39,000 300 Climbing Chicago Center
09:26PM 41.9142 -86.7836 86° East 421 484 39,000  Level Chicago Center
09:27PM 41.9233 -86.6172 86° East 420 483 39,000  Level Chicago Center
09:28PM 41.9314 -86.4611 86° East 420 483 39,000  Level Chicago Center
09:29PM 41.9394 -86.3044 86° East 421 484 39,000  Level Chicago Center
09:30PM 41.9472 -86.1483 86° East 417 480 39,000  Level Chicago Center
09:31PM 41.9544 -85.9925 86° East 418 481 39,000  Level Chicago Center
09:32PM 41.9619 -85.8356 86° East 419 482 39,000  Level Chicago Center
09:33PM 41.9714 -85.6467 86° East 420 483 39,000  Level Chicago Center
09:34PM 41.9786 -85.4867 86° East 425 489 39,000  Level Chicago Center
09:35PM 41.9858 -85.3253 87° East 429 494 39,000  Level Chicago Center
09:35PM 41.9931 -85.2272 84° East 418 481 39,000  Level Cleveland Center
09:36PM 41.9994 -85.0683 87° East 418 481 39,000  Level Cleveland Center
09:37PM 42.0056 -84.9122 87° East 418 481 39,000  Level Cleveland Center
09:38PM 42.0114 -84.7533 87° East 418 481 39,000  Level Cleveland Center
09:39PM 42.0147 -84.5997 88° East 418 481 39,000  Level Cleveland Center
09:40PM 42.0222 -84.4408 86° East 418 481 39,000  Level Cleveland Center
09:41PM 42.0253 -84.2872 88° East 418 481 39,000  Level Cleveland Center
09:42PM 42.0253 -84.1500 90° East 411 473 39,000  Level Cleveland Center
09:43PM 42.0364 -83.9914 85° East 411 473 39,000  Level Cleveland Center
09:44PM 42.0533 -83.8411 81° East 406 467 39,000  Level Cleveland Center
09:45PM 42.0700 -83.6908 81° East 406 467 39,000  Level Cleveland Center
09:46PM 42.0911 -83.5183 81° East 417 480 39,000  Level Cleveland Center
09:47PM 42.1075 -83.3681 82° East 417 480 39,000  Level Cleveland Center
09:48PM 42.1236 -83.2119 82° East 417 480 39,000  Level Cleveland Center
09:49PM 42.1394 -83.0725 81° East 417 480 39,000  Level Cleveland Center
09:50PM 42.1550 -82.9219 82° East 412 474 39,000  Level Cleveland Center
09:51PM 42.1706 -82.7711 82° East 406 467 39,000  Level Cleveland Center
09:52PM 42.1858 -82.6206 82° East 406 467 39,000  Level Cleveland Center
09:53PM 42.2053 -82.4528 81° East 412 474 39,000  Level Cleveland Center
09:54PM 42.2181 -82.3019 83° East 412 474 39,000  Level Cleveland Center
09:55PM 42.2328 -82.1508 82° East 406 467 39,000  Level Cleveland Center
09:56PM 42.2492 -82.0167 81° East 406 467 39,000  Level Cleveland Center
09:57PM 42.2633 -81.8653 83° East 406 467 39,000  Level Cleveland Center
09:58PM 42.2775 -81.7083 83° East 412 474 39,000  Level Cleveland Center
09:59PM 42.2936 -81.5431 82° East 412 474 39,000  Level Cleveland Center
10:00PM 42.3094 -81.3917 82° East 407 468 39,000  Level Cleveland Center
10:01PM 42.3228 -81.2375 83° East 407 468 39,000  Level Cleveland Center
10:02PM 42.3361 -81.0831 83° East 407 468 39,000  Level Cleveland Center
10:03PM 42.3492 -80.9258 84° East 407 468 39,000  Level Cleveland Center
10:04PM 42.3619 -80.7742 83° East 407 468 39,000  Level Cleveland Center
10:05PM 42.3769 -80.6225 82° East 407 468 39,000  Level Cleveland Center
10:06PM 42.3872 -80.4847 84° East 407 468 39,000  Level Cleveland Center
10:07PM 42.3994 -80.3331 84° East 407 468 39,000  Level Cleveland Center
10:08PM 42.4117 -80.1811 84° East 407 468 39,000  Level Cleveland Center
10:09PM 42.4256 -80.0264 83° East 407 468 39,000  Level Cleveland Center
10:10PM 42.4372 -79.8742 84° East 407 468 39,000  Level Cleveland Center
10:11PM 42.4486 -79.7194 84° East 407 468 39,000  Level Cleveland Center
10:12PM 42.4600 -79.5617 84° East 407 468 39,000  Level Cleveland Center
10:13PM 42.4750 -79.4064 82° East 413 475 39,000  Level Cleveland Center
10:14PM 42.4858 -79.2486 85° East 413 475 39,000  Level Cleveland Center
10:15PM 42.4964 -79.0908 85° East 418 481 39,000  Level Cleveland Center
10:16PM 42.5069 -78.9356 85° East 418 481 39,000  Level Cleveland Center
10:17PM 42.5169 -78.7803 85° East 418 481 39,000  Level Cleveland Center
10:18PM 42.5269 -78.6250 85° East 418 481 39,000  Level Cleveland Center
10:19PM 42.5389 -78.4669 84° East 418 481 39,000  Level Cleveland Center
10:20PM 42.5483 -78.3117 85° East 418 481 39,000  Level Cleveland Center
10:21PM 42.5578 -78.1561 85° East 413 475 39,000  Level Cleveland Center
10:22PM 42.5669 -78.0036 85° East 407 468 39,000  Level Cleveland Center
10:23PM 42.5758 -77.8508 85° East 407 468 39,000  Level Cleveland Center
10:27PM 42.6047 -77.3550 85° East 402 463 39,000  Level Boston Center
10:28PM 42.6131 -77.2033 86° East 405 466 39,000  Level Boston Center
10:29PM 42.6217 -77.0486 86° East 391 450 39,000  Level Boston Center
10:30PM 42.6297 -76.8967 86° East 398 458 39,000  Level Boston Center
10:31PM 42.6381 -76.7392 86° East 403 464 39,000  Level Boston Center
10:32PM 42.6458 -76.5872 86° East 408 470 39,000  Level Boston Center
10:33PM 42.6533 -76.4325 86° East 408 470 39,000  Level Boston Center
10:34PM 42.6608 -76.2775 86° East 403 464 39,000  Level Boston Center
10:35PM 42.6675 -76.1394 86° East 403 464 39,000  Level Boston Center
10:36PM 42.6747 -75.9789 86° East 403 464 39,000  Level Boston Center
10:37PM 42.6814 -75.8239 87° East 403 464 39,000 -300 Level Boston Center
10:38PM 42.6858 -75.6717 88° East 403 464 38,500 -720 Descending Boston Center
10:39PM 42.6925 -75.5108 87° East 403 464 37,600 -960 Descending Boston Center
10:40PM 42.7006 -75.3558 86° East 403 464 36,600 -960 Descending Boston Center
10:41PM 42.7047 -75.1978 88° East 408 470 35,700 -960 Descending Boston Center
10:42PM 42.7106 -75.0342 87° East 420 483 34,700 -1,860 Descending Boston Center
10:43PM 42.7164 -74.8675 87° East 420 483 32,000 -2,820 Descending Boston Center
10:44PM 42.7217 -74.7067 87° East 420 483 29,100 -1,500 Descending Boston Center
10:45PM 42.7250 -74.5344 88° East 435 501 29,000 -300 Descending Boston Center
10:46PM 42.7322 -74.3650 87° East 441 507 28,600 -720 Descending Boston Center
10:47PM 42.7369 -74.2011 88° East 441 507 27,600 -1,080 Descending Boston Center
10:48PM 42.7394 -74.0372 89° East 436 502 26,500 -1,080 Descending Boston Center
10:49PM 42.7456 -73.8764 87° East 436 502 25,500 -960 Descending Boston Center
10:50PM 42.7517 -73.7181 87° East 424 488 24,500 -1,020 Descending Boston Center
10:51PM 42.7600 -73.5317 86° East 413 475 23,300 -1,020 Descending Boston Center
10:52PM 42.7653 -73.3819 87° East 413 475 22,300 -1,020 Descending Boston Center
10:53PM 42.7708 -73.1953 88° East 403 464 21,100 -1,140 Descending Boston Center
10:54PM 42.7761 -73.0453 87° East 398 458 20,100 -1,080 Descending Boston Center
10:55PM 42.7808 -72.8983 87° East 398 458 19,000 -1,080 Descending Boston Center
10:56PM 42.7833 -72.7542 89° East 388 447 18,000 -900 Descending Boston Center
10:57PM 42.7878 -72.6128 87° East 381 438 17,200 -900 Descending Boston Center
10:58PM 42.7900 -72.4769 89° East 370 426 16,200 -1,560 Descending Boston Center
10:59PM 42.7942 -72.3383 88° East 364 419 14,100 -2,160 Descending Boston Center
11:00PM 42.8003 -72.2053 86° East 359 413 11,900 -1,860 Descending Boston Center
11:01PM 42.8269 -72.0750 74° East 335 386 10,400 -1,200 Descending Boston Center
11:02PM 42.8600 -71.9897 62° Northeast 297 342 9,600 -1,380 Descending Boston Center
11:03PM 42.8972 -71.8847 64° Northeast 268 308 7,700 -1,920 Descending Boston Center
11:04PM 42.9281 -71.8050 62° Northeast 261 300 5,800 -1,740 Descending Boston Center
11:05PM 42.9628 -71.7108 63° Northeast 261 300 4,300 -1,200 Descending Boston Center
11:06PM 42.9894 -71.6397 63° Northeast 242 278 3,400 -840 Descending Boston Center
11:07PM 43.0078 -71.5742 69° East 216 249 2,700 -900 Descending Boston Center
11:08PM 43.0072 -71.4947 91° East 193 222 1,700 -900 Descending Boston Center
11:09PM 42.9778 -71.4611 140° Southeast 143 165 1,000 -660 Descending Boston Center
11:10PM 42.9483 -71.4444 157° South 130 150 400 -360 Descending Boston Center
11:11PM 42.9147 -71.4167 149° Southeast 130 150 300 4,260 Descending Boston Center
11:12PM 42.8833 -71.3975 156° South 130 150 9,000 8,700 Climbing Boston Center